createdAt,value
2018-05-11T00:00:11.866Z,959.99
2018-05-11T00:01:11.888Z,959.96
2018-05-11T00:02:11.962Z,959.96
2018-05-11T00:03:11.922Z,959.93
2018-05-11T00:04:11.946Z,959.94
2018-05-11T00:05:11.961Z,959.91
2018-05-11T00:06:11.980Z,959.99
2018-05-11T00:07:12.001Z,959.94
2018-05-11T00:08:12.015Z,959.99
2018-05-11T00:09:12.035Z,959.94
2018-05-11T00:10:12.054Z,959.99
2018-05-11T00:11:12.073Z,959.97
2018-05-11T00:12:12.094Z,960.01
2018-05-11T00:13:12.109Z,959.99
2018-05-11T00:14:12.131Z,960.03
2018-05-11T00:15:12.148Z,959.99
2018-05-11T00:16:12.167Z,960
2018-05-11T00:17:12.235Z,959.97
2018-05-11T00:18:12.203Z,959.98
2018-05-11T00:19:12.222Z,959.98
2018-05-11T00:20:12.242Z,960
2018-05-11T00:21:12.260Z,960.03
2018-05-11T00:22:12.276Z,960.01
2018-05-11T00:23:12.296Z,960.01
2018-05-11T00:24:12.314Z,959.96
2018-05-11T00:25:12.334Z,960.04
2018-05-11T00:26:12.353Z,959.96
2018-05-11T00:27:12.370Z,960.02
2018-05-11T00:28:12.391Z,959.95
2018-05-11T00:29:12.410Z,959.94
2018-05-11T00:30:12.431Z,959.97
2018-05-11T00:31:12.447Z,960
2018-05-11T00:32:12.515Z,960
2018-05-11T00:33:12.485Z,959.99
2018-05-11T00:34:12.507Z,959.91
2018-05-11T00:35:12.524Z,959.95
2018-05-11T00:36:12.541Z,959.88
2018-05-11T00:37:12.562Z,959.93
2018-05-11T00:38:12.580Z,959.93
2018-05-11T00:39:12.598Z,959.92
2018-05-11T00:40:12.622Z,959.85
2018-05-11T00:41:12.636Z,959.92
2018-05-11T00:42:12.654Z,959.92
2018-05-11T00:43:12.675Z,959.9
2018-05-11T00:44:12.692Z,959.89
2018-05-11T00:45:12.711Z,959.89
2018-05-11T00:46:12.729Z,959.91
2018-05-11T00:47:12.801Z,959.86
2018-05-11T00:48:12.766Z,959.87
2018-05-11T00:49:12.784Z,959.87
2018-05-11T00:50:12.808Z,959.85
2018-05-11T00:51:12.825Z,959.89
2018-05-11T00:52:12.841Z,959.92
2018-05-11T00:53:12.859Z,959.91
2018-05-11T00:54:12.878Z,959.94
2018-05-11T00:55:12.898Z,959.96
2018-05-11T00:56:12.918Z,959.95
2018-05-11T00:57:12.937Z,959.95
2018-05-11T00:58:12.955Z,959.91
2018-05-11T00:59:12.974Z,959.98
2018-05-11T01:00:12.991Z,959.95
2018-05-11T01:01:13.011Z,959.94
2018-05-11T01:02:13.079Z,959.96
2018-05-11T01:03:13.048Z,959.94
2018-05-11T01:04:13.067Z,959.96
2018-05-11T01:05:13.085Z,959.96
2018-05-11T01:06:13.104Z,960.03
2018-05-11T01:07:13.123Z,959.97
2018-05-11T01:08:13.143Z,960.01
2018-05-11T01:09:13.160Z,960.02
2018-05-11T01:10:13.180Z,960.02
2018-05-11T01:11:13.198Z,959.98
2018-05-11T01:12:13.216Z,959.98
2018-05-11T01:13:13.236Z,960.03
2018-05-11T01:14:13.254Z,959.95
2018-05-11T01:15:13.272Z,960
2018-05-11T01:16:13.291Z,959.95
2018-05-11T01:17:13.374Z,959.94
2018-05-11T01:18:13.328Z,959.96
2018-05-11T01:19:13.346Z,959.91
2018-05-11T01:20:13.366Z,959.94
2018-05-11T01:21:13.386Z,959.88
2018-05-11T01:22:13.400Z,959.9
2018-05-11T01:23:13.421Z,959.84
2018-05-11T01:24:13.438Z,959.87
2018-05-11T01:25:13.458Z,959.84
2018-05-11T01:26:13.476Z,959.82
2018-05-11T01:27:13.545Z,959.81
2018-05-11T01:28:13.515Z,959.82
2018-05-11T01:29:13.532Z,959.84
2018-05-11T01:30:13.551Z,959.86
2018-05-11T01:31:13.581Z,959.83
2018-05-11T01:32:13.639Z,959.81
2018-05-11T01:33:13.605Z,959.81
2018-05-11T01:34:13.625Z,959.85
2018-05-11T01:35:13.644Z,959.86
2018-05-11T01:36:13.662Z,959.85
2018-05-11T01:37:13.683Z,959.87
2018-05-11T01:38:13.701Z,959.94
2018-05-11T01:39:13.721Z,959.91
2018-05-11T01:40:13.738Z,959.88
2018-05-11T01:41:13.756Z,959.92
2018-05-11T01:42:13.775Z,959.91
2018-05-11T01:43:13.794Z,959.95
2018-05-11T01:44:13.813Z,959.99
2018-05-11T01:45:13.830Z,959.99
2018-05-11T01:46:13.852Z,959.99
2018-05-11T01:47:13.917Z,959.98
2018-05-11T01:48:13.885Z,959.98
2018-05-11T01:49:13.904Z,960.04
2018-05-11T01:50:13.924Z,960
2018-05-11T01:51:13.942Z,959.97
2018-05-11T01:52:13.959Z,959.98
2018-05-11T01:53:13.979Z,959.96
2018-05-11T01:54:14.000Z,959.95
2018-05-11T01:55:14.014Z,959.93
2018-05-11T01:56:14.031Z,959.89
2018-05-11T01:57:14.055Z,959.91
2018-05-11T01:58:14.069Z,959.88
2018-05-11T01:59:14.086Z,959.89
2018-05-11T02:00:14.105Z,959.9
2018-05-11T02:01:14.130Z,959.88
2018-05-11T02:02:14.197Z,959.85
2018-05-11T02:03:14.165Z,959.86
2018-05-11T02:04:14.183Z,959.81
2018-05-11T02:05:14.201Z,959.8
2018-05-11T02:06:14.219Z,959.79
2018-05-11T02:07:14.288Z,959.8
2018-05-11T02:08:14.261Z,959.81
2018-05-11T02:09:14.277Z,959.76
2018-05-11T02:10:14.299Z,959.75
2018-05-11T02:11:14.313Z,959.72
2018-05-11T02:12:14.331Z,959.74
2018-05-11T02:13:14.349Z,959.74
2018-05-11T02:14:14.368Z,959.72
2018-05-11T02:15:14.397Z,959.75
2018-05-11T02:16:14.410Z,959.73
2018-05-11T02:17:14.423Z,959.72
2018-05-11T02:18:14.533Z,959.79
2018-05-11T02:19:14.461Z,959.77
2018-05-11T02:20:14.481Z,959.73
2018-05-11T02:21:14.496Z,959.7
2018-05-11T02:22:14.566Z,959.69
2018-05-11T02:23:14.533Z,959.7
2018-05-11T02:24:14.553Z,959.69
2018-05-11T02:25:14.572Z,959.68
2018-05-11T02:26:14.590Z,959.69
2018-05-11T02:27:14.613Z,959.65
2018-05-11T02:28:14.631Z,959.63
2018-05-11T02:29:14.651Z,959.63
2018-05-11T02:30:14.671Z,959.64
2018-05-11T02:31:14.696Z,959.63
2018-05-11T02:32:14.709Z,959.64
2018-05-11T02:33:14.727Z,959.62
2018-05-11T02:34:14.748Z,959.61
2018-05-11T02:35:14.769Z,959.61
2018-05-11T02:36:14.786Z,959.59
2018-05-11T02:37:14.908Z,959.62
2018-05-11T02:38:14.833Z,959.59
2018-05-11T02:39:14.844Z,959.58
2018-05-11T02:40:14.864Z,959.59
2018-05-11T02:41:14.882Z,959.59
2018-05-11T02:42:14.902Z,959.63
2018-05-11T02:43:14.921Z,959.55
2018-05-11T02:44:14.943Z,959.55
2018-05-11T02:45:14.963Z,959.55
2018-05-11T02:46:14.980Z,959.54
2018-05-11T02:47:15.000Z,959.57
2018-05-11T02:48:15.022Z,959.56
2018-05-11T02:49:15.044Z,959.55
2018-05-11T02:50:15.061Z,959.57
2018-05-11T02:51:15.086Z,959.57
2018-05-11T02:52:15.152Z,959.58
2018-05-11T02:53:15.123Z,959.64
2018-05-11T02:54:15.142Z,959.63
2018-05-11T02:55:15.197Z,959.62
2018-05-11T02:56:15.181Z,959.62
2018-05-11T02:57:15.202Z,959.61
2018-05-11T02:58:15.222Z,959.61
2018-05-11T02:59:15.243Z,959.61
2018-05-11T03:00:15.271Z,959.59
2018-05-11T03:01:15.282Z,959.63
2018-05-11T03:02:15.313Z,959.62
2018-05-11T03:03:15.324Z,959.6
2018-05-11T03:04:15.344Z,959.63
2018-05-11T03:05:15.363Z,959.63
2018-05-11T03:06:15.382Z,959.61
2018-05-11T03:07:15.454Z,959.62
2018-05-11T03:08:15.422Z,959.58
2018-05-11T03:09:15.443Z,959.58
2018-05-11T03:10:15.468Z,959.54
2018-05-11T03:11:15.483Z,959.55
2018-05-11T03:12:15.504Z,959.58
2018-05-11T03:13:15.524Z,959.57
2018-05-11T03:14:15.546Z,959.55
2018-05-11T03:15:15.565Z,959.58
2018-05-11T03:16:15.582Z,959.57
2018-05-11T03:17:15.608Z,959.52
2018-05-11T03:18:15.622Z,959.6
2018-05-11T03:19:15.642Z,959.59
2018-05-11T03:20:15.661Z,959.62
2018-05-11T03:21:15.682Z,959.58
2018-05-11T03:22:15.754Z,959.58
2018-05-11T03:23:15.723Z,959.6
2018-05-11T03:24:15.744Z,959.63
2018-05-11T03:25:15.762Z,959.61
2018-05-11T03:26:15.782Z,959.56
2018-05-11T03:27:15.801Z,959.56
2018-05-11T03:28:15.821Z,959.54
2018-05-11T03:29:15.840Z,959.58
2018-05-11T03:30:15.865Z,959.56
2018-05-11T03:31:15.880Z,959.55
2018-05-11T03:32:16.000Z,959.58
2018-05-11T03:33:15.921Z,959.59
2018-05-11T03:34:15.941Z,959.59
2018-05-11T03:35:15.960Z,959.62
2018-05-11T03:36:15.979Z,959.65
2018-05-11T03:37:16.052Z,959.59
2018-05-11T03:38:16.022Z,959.64
2018-05-11T03:39:16.121Z,959.63
2018-05-11T03:40:16.059Z,959.67
2018-05-11T03:41:16.079Z,959.67
2018-05-11T03:42:16.101Z,959.68
2018-05-11T03:43:16.121Z,959.69
2018-05-11T03:44:16.142Z,959.65
2018-05-11T03:45:16.159Z,959.68
2018-05-11T03:46:16.187Z,959.64
2018-05-11T03:47:16.200Z,959.68
2018-05-11T03:48:16.218Z,959.7
2018-05-11T03:49:16.239Z,959.68
2018-05-11T03:50:16.260Z,959.72
2018-05-11T03:51:16.281Z,959.71
2018-05-11T03:52:16.347Z,959.71
2018-05-11T03:53:16.317Z,959.69
2018-05-11T03:54:16.339Z,959.67
2018-05-11T03:55:16.359Z,959.69
2018-05-11T03:56:16.377Z,959.68
2018-05-11T03:57:16.398Z,959.66
2018-05-11T03:58:16.421Z,959.71
2018-05-11T03:59:16.438Z,959.65
2018-05-11T04:00:16.457Z,959.67
2018-05-11T04:01:16.506Z,959.66
2018-05-11T04:02:16.497Z,959.67
2018-05-11T04:03:16.516Z,959.6
2018-05-11T04:04:16.538Z,959.65
2018-05-11T04:05:16.558Z,959.64
2018-05-11T04:06:16.576Z,959.65
2018-05-11T04:07:16.647Z,959.64
2018-05-11T04:08:16.618Z,959.61
2018-05-11T04:09:16.636Z,959.65
2018-05-11T04:10:16.669Z,959.63
2018-05-11T04:11:16.677Z,959.63
2018-05-11T04:12:16.702Z,959.65
2018-05-11T04:13:16.753Z,959.62
2018-05-11T04:14:16.737Z,959.63
2018-05-11T04:15:16.758Z,959.61
2018-05-11T04:16:16.778Z,959.62
2018-05-11T04:17:16.799Z,959.61
2018-05-11T04:18:16.817Z,959.6
2018-05-11T04:19:16.837Z,959.58
2018-05-11T04:20:16.859Z,959.62
2018-05-11T04:21:16.878Z,959.62
2018-05-11T04:22:16.952Z,959.59
2018-05-11T04:23:16.920Z,959.64
2018-05-11T04:24:16.940Z,959.62
2018-05-11T04:25:16.960Z,959.62
2018-05-11T04:26:16.981Z,959.62
2018-05-11T04:27:16.999Z,959.59
2018-05-11T04:28:17.020Z,959.6
2018-05-11T04:29:17.039Z,959.58
2018-05-11T04:30:17.123Z,959.58
2018-05-11T04:31:17.079Z,959.58
2018-05-11T04:32:17.102Z,959.61
2018-05-11T04:33:17.119Z,959.59
2018-05-11T04:34:17.142Z,959.63
2018-05-11T04:35:17.160Z,959.65
2018-05-11T04:36:17.178Z,959.67
2018-05-11T04:37:17.290Z,959.67
2018-05-11T04:38:17.221Z,959.69
2018-05-11T04:39:17.242Z,959.69
2018-05-11T04:40:17.261Z,959.73
2018-05-11T04:41:17.281Z,959.73
2018-05-11T04:42:17.307Z,959.73
2018-05-11T04:43:17.321Z,959.76
2018-05-11T04:44:17.340Z,959.71
2018-05-11T04:45:17.434Z,959.75
2018-05-11T04:46:17.381Z,959.71
2018-05-11T04:47:17.401Z,959.71
2018-05-11T04:48:17.421Z,959.65
2018-05-11T04:49:17.441Z,959.69
2018-05-11T04:50:17.462Z,959.72
2018-05-11T04:51:17.481Z,959.66
2018-05-11T04:52:17.553Z,959.68
2018-05-11T04:53:17.523Z,959.7
2018-05-11T04:54:17.544Z,959.7
2018-05-11T04:55:17.566Z,959.69
2018-05-11T04:56:17.584Z,959.71
2018-05-11T04:57:17.604Z,959.75
2018-05-11T04:58:17.622Z,959.73
2018-05-11T04:59:17.644Z,959.74
2018-05-11T05:00:17.664Z,959.75
2018-05-11T05:01:17.685Z,959.75
2018-05-11T05:02:17.707Z,959.71
2018-05-11T05:03:17.737Z,959.73
2018-05-11T05:04:17.746Z,959.73
2018-05-11T05:05:17.774Z,959.74
2018-05-11T05:06:17.785Z,959.76
2018-05-11T05:07:17.856Z,959.76
2018-05-11T05:08:17.827Z,959.77
2018-05-11T05:09:17.845Z,959.74
2018-05-11T05:10:17.873Z,959.75
2018-05-11T05:11:17.888Z,959.75
2018-05-11T05:12:17.912Z,959.72
2018-05-11T05:13:17.929Z,959.72
2018-05-11T05:14:17.949Z,959.73
2018-05-11T05:15:17.970Z,959.74
2018-05-11T05:16:17.988Z,959.74
2018-05-11T05:17:18.013Z,959.77
2018-05-11T05:18:18.033Z,959.75
2018-05-11T05:19:18.107Z,959.8
2018-05-11T05:20:18.071Z,959.8
2018-05-11T05:21:18.094Z,959.81
2018-05-11T05:22:18.163Z,959.78
2018-05-11T05:23:18.131Z,959.79
2018-05-11T05:24:18.153Z,959.78
2018-05-11T05:25:18.174Z,959.81
2018-05-11T05:26:18.194Z,959.8
2018-05-11T05:27:18.213Z,959.8
2018-05-11T05:28:18.234Z,959.84
2018-05-11T05:29:18.255Z,959.86
2018-05-11T05:30:18.277Z,959.85
2018-05-11T05:31:18.297Z,959.85
2018-05-11T05:32:18.316Z,959.87
2018-05-11T05:33:18.336Z,959.82
2018-05-11T05:34:18.359Z,959.82
2018-05-11T05:35:18.376Z,959.81
2018-05-11T05:36:18.398Z,959.83
2018-05-11T05:37:18.470Z,959.85
2018-05-11T05:38:18.440Z,959.81
2018-05-11T05:39:18.573Z,959.79
2018-05-11T05:40:18.482Z,959.82
2018-05-11T05:41:18.521Z,959.77
2018-05-11T05:42:18.523Z,959.76
2018-05-11T05:43:18.543Z,959.79
2018-05-11T05:44:18.566Z,959.77
2018-05-11T05:45:18.583Z,959.8
2018-05-11T05:46:18.604Z,959.78
2018-05-11T05:47:18.626Z,959.8
2018-05-11T05:48:18.646Z,959.83
2018-05-11T05:49:18.666Z,959.77
2018-05-11T05:50:18.686Z,959.8
2018-05-11T05:51:18.707Z,959.81
2018-05-11T05:52:18.780Z,959.82
2018-05-11T05:53:18.749Z,959.87
2018-05-11T05:54:18.777Z,959.88
2018-05-11T05:55:18.790Z,959.91
2018-05-11T05:56:18.813Z,959.93
2018-05-11T05:57:18.883Z,959.93
2018-05-11T05:58:18.853Z,959.96
2018-05-11T05:59:18.874Z,959.99
2018-05-11T06:00:18.894Z,959.99
2018-05-11T06:01:18.917Z,959.96
2018-05-11T06:02:18.936Z,959.94
2018-05-11T06:03:18.958Z,959.99
2018-05-11T06:04:18.979Z,959.95
2018-05-11T06:05:19.001Z,959.96
2018-05-11T06:06:19.021Z,959.94
2018-05-11T06:07:19.092Z,959.96
2018-05-11T06:08:19.158Z,960
2018-05-11T06:09:19.084Z,959.98
2018-05-11T06:10:19.103Z,959.99
2018-05-11T06:11:19.124Z,959.97
2018-05-11T06:12:19.151Z,959.97
2018-05-11T06:13:19.168Z,959.94
2018-05-11T06:14:19.188Z,959.94
2018-05-11T06:15:19.210Z,959.94
2018-05-11T06:16:19.234Z,959.93
2018-05-11T06:17:19.255Z,959.96
2018-05-11T06:18:19.277Z,959.97
2018-05-11T06:19:19.324Z,959.93
2018-05-11T06:20:19.318Z,960.01
2018-05-11T06:21:19.344Z,959.99
2018-05-11T06:22:19.413Z,959.96
2018-05-11T06:23:19.384Z,959.96
2018-05-11T06:24:19.406Z,959.93
2018-05-11T06:25:19.429Z,959.97
2018-05-11T06:26:19.453Z,959.94
2018-05-11T06:27:19.468Z,959.96
2018-05-11T06:28:19.493Z,959.98
2018-05-11T06:29:19.512Z,959.99
2018-05-11T06:30:19.537Z,959.98
2018-05-11T06:31:19.557Z,959.96
2018-05-11T06:32:19.579Z,959.96
2018-05-11T06:33:19.600Z,959.89
2018-05-11T06:34:19.622Z,959.87
2018-05-11T06:35:19.644Z,959.89
2018-05-11T06:36:19.669Z,959.91
2018-05-11T06:37:19.736Z,959.91
2018-05-11T06:38:19.709Z,959.92
2018-05-11T06:39:19.731Z,959.99
2018-05-11T06:40:19.753Z,959.98
2018-05-11T06:41:19.774Z,959.95
2018-05-11T06:42:19.812Z,959.99
2018-05-11T06:43:19.818Z,959.94
2018-05-11T06:44:19.841Z,959.93
2018-05-11T06:45:19.866Z,959.93
2018-05-11T06:46:19.885Z,959.93
2018-05-11T06:47:19.906Z,959.93
2018-05-11T06:48:19.929Z,959.94
2018-05-11T06:49:19.951Z,959.96
2018-05-11T06:50:19.973Z,959.92
2018-05-11T06:51:19.993Z,959.93
2018-05-11T06:52:20.067Z,959.96
2018-05-11T06:53:20.040Z,959.95
2018-05-11T06:54:20.063Z,959.91
2018-05-11T06:55:20.081Z,959.92
2018-05-11T06:56:20.105Z,959.94
2018-05-11T06:57:20.128Z,959.93
2018-05-11T06:58:20.150Z,959.93
2018-05-11T06:59:20.172Z,959.94
2018-05-11T07:00:20.194Z,959.91
2018-05-11T07:01:20.216Z,959.88
2018-05-11T07:02:20.238Z,959.88
2018-05-11T07:03:20.261Z,959.84
2018-05-11T07:04:20.291Z,959.83
2018-05-11T07:05:20.310Z,959.89
2018-05-11T07:06:20.330Z,959.85
2018-05-11T07:07:20.568Z,959.84
2018-05-11T07:08:20.376Z,959.86
2018-05-11T07:09:20.398Z,959.82
2018-05-11T07:10:20.420Z,959.83
2018-05-11T07:11:20.444Z,959.83
2018-05-11T07:12:20.480Z,959.82
2018-05-11T07:13:20.488Z,959.8
2018-05-11T07:14:20.512Z,959.77
2018-05-11T07:15:20.536Z,959.74
2018-05-11T07:16:20.559Z,959.79
2018-05-11T07:17:20.581Z,959.8
2018-05-11T07:18:20.604Z,959.79
2018-05-11T07:19:20.657Z,959.78
2018-05-11T07:20:20.651Z,959.78
2018-05-11T07:21:20.673Z,959.78
2018-05-11T07:22:20.747Z,959.8
2018-05-11T07:23:20.722Z,959.77
2018-05-11T07:24:20.744Z,959.75
2018-05-11T07:25:20.770Z,959.76
2018-05-11T07:26:20.791Z,959.76
2018-05-11T07:27:20.815Z,959.77
2018-05-11T07:28:20.836Z,959.84
2018-05-11T07:29:20.861Z,959.79
2018-05-11T07:30:20.885Z,959.86
2018-05-11T07:31:20.907Z,959.81
2018-05-11T07:32:20.931Z,959.85
2018-05-11T07:33:20.957Z,959.85
2018-05-11T07:34:20.979Z,959.87
2018-05-11T07:35:21.004Z,959.85
2018-05-11T07:36:21.029Z,959.86
2018-05-11T07:37:21.099Z,959.86
2018-05-11T07:38:21.076Z,959.86
2018-05-11T07:39:21.096Z,959.86
2018-05-11T07:40:21.121Z,959.85
2018-05-11T07:41:21.145Z,959.82
2018-05-11T07:42:21.165Z,959.85
2018-05-11T07:43:21.327Z,959.8
2018-05-11T07:44:21.216Z,959.77
2018-05-11T07:45:21.240Z,959.77
2018-05-11T07:46:21.263Z,959.76
2018-05-11T07:47:21.286Z,959.74
2018-05-11T07:48:21.310Z,959.75
2018-05-11T07:49:21.336Z,959.72
2018-05-11T07:50:21.358Z,959.71
2018-05-11T07:51:21.383Z,959.71
2018-05-11T07:52:21.464Z,959.69
2018-05-11T07:53:21.430Z,959.66
2018-05-11T07:54:21.454Z,959.65
2018-05-11T07:55:21.480Z,959.63
2018-05-11T07:56:21.502Z,959.65
2018-05-11T07:57:21.527Z,959.66
2018-05-11T07:58:21.550Z,959.62
2018-05-11T07:59:21.575Z,959.63
2018-05-11T08:00:21.633Z,959.59
2018-05-11T08:01:21.620Z,959.6
2018-05-11T08:02:21.649Z,959.65
2018-05-11T08:03:21.670Z,959.61
2018-05-11T08:04:21.694Z,959.62
2018-05-11T08:05:21.718Z,959.68
2018-05-11T08:06:21.740Z,959.66
2018-05-11T08:07:21.815Z,959.65
2018-05-11T08:08:21.788Z,959.66
2018-05-11T08:09:21.812Z,959.66
2018-05-11T08:10:21.837Z,959.64
2018-05-11T08:11:21.862Z,959.65
2018-05-11T08:12:21.885Z,959.64
2018-05-11T08:13:21.909Z,959.62
2018-05-11T08:14:22.041Z,959.58
2018-05-11T08:15:21.966Z,959.56
2018-05-11T08:16:21.980Z,959.52
2018-05-11T08:17:22.004Z,959.56
2018-05-11T08:18:22.030Z,959.56
2018-05-11T08:19:22.050Z,959.5
2018-05-11T08:20:22.073Z,959.53
2018-05-11T08:21:22.170Z,959.5
2018-05-11T08:22:22.173Z,959.51
2018-05-11T08:23:22.150Z,959.49
2018-05-11T08:24:22.173Z,959.49
2018-05-11T08:25:22.196Z,959.49
2018-05-11T08:26:22.220Z,959.47
2018-05-11T08:27:22.245Z,959.45
2018-05-11T08:28:22.267Z,959.46
2018-05-11T08:29:22.291Z,959.48
2018-05-11T08:30:22.314Z,959.46
2018-05-11T08:31:22.342Z,959.44
2018-05-11T08:32:22.365Z,959.45
2018-05-11T08:33:22.389Z,959.47
2018-05-11T08:34:22.414Z,959.45
2018-05-11T08:35:22.439Z,959.5
2018-05-11T08:36:22.464Z,959.42
2018-05-11T08:37:22.539Z,959.43
2018-05-11T08:38:22.513Z,959.46
2018-05-11T08:39:22.539Z,959.45
2018-05-11T08:40:22.564Z,959.42
2018-05-11T08:41:22.592Z,959.41
2018-05-11T08:42:22.612Z,959.45
2018-05-11T08:43:22.639Z,959.44
2018-05-11T08:44:22.665Z,959.44
2018-05-11T08:45:22.690Z,959.43
2018-05-11T08:46:22.728Z,959.47
2018-05-11T08:47:22.741Z,959.44
2018-05-11T08:48:22.765Z,959.44
2018-05-11T08:49:22.791Z,959.39
2018-05-11T08:50:22.817Z,959.46
2018-05-11T08:51:22.842Z,959.39
2018-05-11T08:52:22.922Z,959.36
2018-05-11T08:53:22.899Z,959.36
2018-05-11T08:54:22.924Z,959.39
2018-05-11T08:55:22.945Z,959.4
2018-05-11T08:56:22.971Z,959.35
2018-05-11T08:57:23.096Z,959.37
2018-05-11T08:58:23.023Z,959.35
2018-05-11T08:59:23.048Z,959.33
2018-05-11T09:00:23.077Z,959.3
2018-05-11T09:01:23.103Z,959.33
2018-05-11T09:02:23.128Z,959.32
2018-05-11T09:03:23.151Z,959.3
2018-05-11T09:04:23.177Z,959.26
2018-05-11T09:05:23.200Z,959.25
2018-05-11T09:06:23.225Z,959.23
2018-05-11T09:07:23.301Z,959.28
2018-05-11T09:08:23.330Z,959.28
2018-05-11T09:09:23.308Z,959.3
2018-05-11T09:10:23.341Z,959.25
2018-05-11T09:11:23.358Z,959.28
2018-05-11T09:12:23.383Z,959.29
2018-05-11T09:13:23.412Z,959.3
2018-05-11T09:14:23.440Z,959.34
2018-05-11T09:15:23.463Z,959.32
2018-05-11T09:16:23.487Z,959.32
2018-05-11T09:17:23.512Z,959.31
2018-05-11T09:18:23.567Z,959.25
2018-05-11T09:19:23.565Z,959.25
2018-05-11T09:20:23.594Z,959.24
2018-05-11T09:21:23.685Z,959.2
2018-05-11T09:22:23.697Z,959.26
2018-05-11T09:23:23.673Z,959.2
2018-05-11T09:24:23.700Z,959.19
2018-05-11T09:25:23.725Z,959.19
2018-05-11T09:26:23.751Z,959.16
2018-05-11T09:27:23.781Z,959.17
2018-05-11T09:28:23.805Z,959.14
2018-05-11T09:29:23.831Z,959.15
2018-05-11T09:30:23.860Z,959.14
2018-05-11T09:31:23.884Z,959.1
2018-05-11T09:32:23.911Z,959.12
2018-05-11T09:33:23.937Z,959.1
2018-05-11T09:34:23.965Z,959.06
2018-05-11T09:35:23.991Z,959.09
2018-05-11T09:36:24.017Z,959.08
2018-05-11T09:37:24.093Z,959.07
2018-05-11T09:38:24.071Z,959.07
2018-05-11T09:39:24.208Z,959.05
2018-05-11T09:40:24.125Z,959.06
2018-05-11T09:41:24.151Z,959.04
2018-05-11T09:42:24.291Z,959.06
2018-05-11T09:43:24.206Z,959.03
2018-05-11T09:44:24.233Z,959.01
2018-05-11T09:45:24.263Z,959.02
2018-05-11T09:46:24.288Z,959.03
2018-05-11T09:47:24.315Z,959.02
2018-05-11T09:48:24.344Z,959
2018-05-11T09:49:24.433Z,959.05
2018-05-11T09:50:24.398Z,959.05
2018-05-11T09:51:24.427Z,959.04
2018-05-11T09:52:24.454Z,959.07
2018-05-11T09:53:24.483Z,959.09
2018-05-11T09:54:24.510Z,959.09
2018-05-11T09:55:24.539Z,959.1
2018-05-11T09:56:24.568Z,959.07
2018-05-11T09:57:24.648Z,959.05
2018-05-11T09:58:24.648Z,959.03
2018-05-11T09:59:24.660Z,958.99
2018-05-11T10:00:24.682Z,958.96
2018-05-11T10:01:24.711Z,959.01
2018-05-11T10:02:24.941Z,959
2018-05-11T10:03:24.772Z,959.02
2018-05-11T10:04:24.799Z,958.99
2018-05-11T10:05:24.839Z,958.89
2018-05-11T10:06:24.863Z,958.9
2018-05-11T10:07:24.887Z,958.86
2018-05-11T10:08:24.924Z,958.9
2018-05-11T10:09:24.943Z,958.88
2018-05-11T10:10:24.973Z,958.89
2018-05-11T10:11:25.003Z,958.9
2018-05-11T10:12:25.108Z,958.81
2018-05-11T10:13:25.062Z,958.85
2018-05-11T10:14:25.102Z,958.85
2018-05-11T10:15:25.119Z,958.87
2018-05-11T10:16:25.148Z,958.91
2018-05-11T10:17:25.177Z,958.86
2018-05-11T10:18:25.208Z,958.89
2018-05-11T10:19:25.280Z,958.82
2018-05-11T10:20:25.267Z,958.81
2018-05-11T10:21:25.296Z,958.73
2018-05-11T10:22:25.329Z,958.79
2018-05-11T10:23:25.357Z,958.78
2018-05-11T10:24:25.387Z,958.77
2018-05-11T10:25:25.418Z,958.77
2018-05-11T10:26:25.448Z,958.77
2018-05-11T10:27:25.531Z,958.83
2018-05-11T10:28:25.506Z,958.83
2018-05-11T10:29:25.537Z,958.83
2018-05-11T10:30:25.569Z,958.8
2018-05-11T10:31:25.595Z,958.79
2018-05-11T10:32:25.624Z,958.75
2018-05-11T10:33:25.655Z,958.78
2018-05-11T10:34:25.750Z,958.75
2018-05-11T10:35:25.712Z,958.77
2018-05-11T10:36:25.742Z,958.79
2018-05-11T10:37:25.773Z,958.71
2018-05-11T10:38:25.810Z,958.76
2018-05-11T10:39:25.830Z,958.68
2018-05-11T10:40:25.859Z,958.7
2018-05-11T10:41:25.889Z,958.64
2018-05-11T10:42:25.970Z,958.64
2018-05-11T10:43:25.950Z,958.63
2018-05-11T10:44:25.978Z,958.58
2018-05-11T10:45:26.012Z,958.64
2018-05-11T10:46:26.037Z,958.56
2018-05-11T10:47:26.069Z,958.58
2018-05-11T10:48:26.120Z,958.66
2018-05-11T10:49:26.128Z,958.6
2018-05-11T10:50:26.158Z,958.6
2018-05-11T10:51:26.190Z,958.56
2018-05-11T10:52:26.221Z,958.64
2018-05-11T10:53:26.249Z,958.61
2018-05-11T10:54:26.280Z,958.57
2018-05-11T10:55:26.321Z,958.6
2018-05-11T10:56:26.338Z,958.57
2018-05-11T10:57:26.419Z,958.6
2018-05-11T10:58:26.402Z,958.6
2018-05-11T10:59:26.432Z,958.57
2018-05-11T11:00:26.470Z,958.55
2018-05-11T11:01:26.493Z,958.53
2018-05-11T11:02:26.577Z,958.6
2018-05-11T11:03:26.555Z,958.55
2018-05-11T11:04:26.594Z,958.59
2018-05-11T11:05:26.621Z,958.56
2018-05-11T11:06:26.659Z,958.44
2018-05-11T11:07:26.683Z,958.42
2018-05-11T11:08:26.716Z,958.4
2018-05-11T11:09:26.752Z,958.42
2018-05-11T11:10:26.781Z,958.44
2018-05-11T11:11:26.812Z,958.38
2018-05-11T11:12:26.911Z,958.34
2018-05-11T11:13:26.903Z,958.36
2018-05-11T11:14:26.910Z,958.4
2018-05-11T11:15:26.948Z,958.37
2018-05-11T11:16:26.972Z,958.37
2018-05-11T11:17:27.004Z,958.39
2018-05-11T11:18:27.036Z,958.34
2018-05-11T11:19:27.068Z,958.31
2018-05-11T11:20:27.101Z,958.27
2018-05-11T11:21:27.134Z,958.3
2018-05-11T11:22:27.165Z,958.29
2018-05-11T11:23:27.197Z,958.31
2018-05-11T11:24:27.228Z,958.28
2018-05-11T11:25:27.272Z,958.25
2018-05-11T11:26:27.297Z,958.3
2018-05-11T11:27:27.382Z,958.28
2018-05-11T11:28:27.363Z,958.31
2018-05-11T11:29:27.394Z,958.29
2018-05-11T11:30:27.429Z,958.25
2018-05-11T11:31:27.462Z,958.24
2018-05-11T11:32:27.495Z,958.21
2018-05-11T11:33:27.528Z,958.19
2018-05-11T11:34:27.649Z,958.2
2018-05-11T11:35:27.596Z,958.25
2018-05-11T11:36:27.628Z,958.21
2018-05-11T11:37:27.661Z,958.24
2018-05-11T11:38:27.695Z,958.22
2018-05-11T11:39:27.727Z,958.21
2018-05-11T11:40:27.761Z,958.24
2018-05-11T11:41:27.794Z,958.21
2018-05-11T11:42:27.877Z,958.15
2018-05-11T11:43:27.863Z,958.17
2018-05-11T11:44:27.895Z,958.06
2018-05-11T11:45:27.937Z,958.15
2018-05-11T11:46:27.961Z,958.14
2018-05-11T11:47:28.124Z,958.15
2018-05-11T11:48:28.034Z,958.14
2018-05-11T11:49:28.061Z,958.14
2018-05-11T11:50:28.097Z,958.08
2018-05-11T11:51:28.130Z,958.19
2018-05-11T11:52:28.163Z,958.1
2018-05-11T11:53:28.304Z,958.15
2018-05-11T11:54:28.231Z,958.1
2018-05-11T11:55:28.264Z,958.1
2018-05-11T11:56:28.351Z,958.11
2018-05-11T11:57:28.332Z,958.08
2018-05-11T11:58:28.365Z,958.07
2018-05-11T11:59:28.399Z,958.12
2018-05-11T12:00:28.433Z,958.13
2018-05-11T12:01:28.472Z,958.15
2018-05-11T12:02:28.551Z,958.16
2018-05-11T12:03:28.535Z,958.08
2018-05-11T12:04:28.570Z,958.05
2018-05-11T12:05:28.603Z,957.98
2018-05-11T12:06:28.636Z,958.01
2018-05-11T12:07:28.722Z,958.03
2018-05-11T12:08:28.706Z,958.04
2018-05-11T12:09:28.737Z,958.01
2018-05-11T12:10:28.773Z,957.95
2018-05-11T12:11:28.807Z,958.07
2018-05-11T12:12:28.845Z,958.14
2018-05-11T12:13:28.877Z,957.99
2018-05-11T12:14:28.915Z,958.07
2018-05-11T12:15:28.948Z,958.1
2018-05-11T12:16:28.981Z,958.15
2018-05-11T12:17:29.016Z,958.12
2018-05-11T12:18:29.062Z,958.14
2018-05-11T12:19:29.110Z,958.12
2018-05-11T12:20:29.121Z,958.13
2018-05-11T12:21:29.157Z,958.07
2018-05-11T12:22:29.242Z,958.1
2018-05-11T12:23:29.226Z,958.06
2018-05-11T12:24:29.259Z,958.09
2018-05-11T12:25:29.295Z,958
2018-05-11T12:26:29.331Z,957.98
2018-05-11T12:27:29.364Z,958.03
2018-05-11T12:28:29.398Z,958
2018-05-11T12:29:29.434Z,957.95
2018-05-11T12:30:29.470Z,957.95
2018-05-11T12:31:29.506Z,957.95